createdAt,value
2023-02-16T01:08:04.660Z,20.63
2023-02-16T01:11:05.925Z,21.83
2023-02-16T01:13:43.251Z,22.35
2023-02-16T01:16:22.550Z,22.73
2023-02-16T01:18:54.209Z,22.13
2023-02-16T01:21:23.606Z,21.58
2023-02-16T01:23:54.329Z,22.30
2023-02-16T01:26:23.919Z,21.33
2023-02-16T01:28:53.405Z,22.60
2023-02-16T01:31:24.184Z,21.73
2023-02-16T01:33:53.678Z,22.05
2023-02-16T01:36:29.585Z,22.60
2023-02-16T01:39:01.009Z,22.00
2023-02-16T01:41:54.439Z,21.13
2023-02-16T01:44:26.901Z,20.25
2023-02-16T01:47:05.227Z,20.45
2023-02-16T01:49:34.708Z,19.38
2023-02-16T01:52:13.675Z,19.65
2023-02-16T01:54:52.178Z,21.27
2023-02-16T01:57:36.258Z,20.38
2023-02-16T02:00:25.357Z,20.95
2023-02-16T02:03:20.436Z,20.00
2023-02-16T02:05:50.574Z,22.05
2023-02-16T02:08:31.586Z,19.25
2023-02-16T02:11:13.156Z,21.80
2023-02-16T02:13:53.284Z,19.88
2023-02-16T02:16:27.455Z,20.75
2023-02-16T02:18:58.938Z,21.27
2023-02-16T02:22:17.718Z,19.98
2023-02-16T02:25:44.987Z,19.25
2023-02-16T02:28:25.082Z,20.25
2023-02-16T02:31:09.261Z,19.20
2023-02-16T02:33:55.334Z,15.68
2023-02-16T02:36:36.595Z,20.45
2023-02-16T02:39:24.654Z,19.58
2023-02-16T02:42:05.105Z,19.52
2023-02-16T02:44:50.302Z,20.25
2023-02-16T02:47:19.954Z,18.90
2023-02-16T02:49:54.647Z,19.17
2023-02-16T02:52:24.616Z,21.55
2023-02-16T02:55:11.965Z,21.70
2023-02-16T02:58:04.199Z,19.33
2023-02-16T03:00:43.943Z,19.70
2023-02-16T03:03:21.637Z,19.98
2023-02-16T03:05:58.978Z,20.45
2023-02-16T03:08:33.042Z,19.05
2023-02-16T03:11:26.749Z,18.48
2023-02-16T03:14:00.481Z,19.63
2023-02-16T03:16:39.435Z,20.55
2023-02-16T03:19:30.924Z,18.92
2023-02-16T03:22:19.703Z,19.73
2023-02-16T03:25:07.016Z,19.55
2023-02-16T03:27:59.294Z,17.95
2023-02-16T03:30:30.686Z,19.83
2023-02-16T03:33:01.690Z,18.20
2023-02-16T03:35:31.266Z,20.95
2023-02-16T03:38:00.990Z,17.67
2023-02-16T03:40:34.885Z,16.55
2023-02-16T03:43:07.962Z,16.63
2023-02-16T03:45:44.494Z,18.80
2023-02-16T03:48:15.265Z,16.33
2023-02-16T03:50:44.862Z,18.88
2023-02-16T03:53:14.279Z,19.20
2023-02-16T03:55:47.764Z,19.15
2023-02-16T03:58:22.930Z,20.17
2023-02-16T04:00:53.739Z,19.75
2023-02-16T04:03:24.489Z,18.77
2023-02-16T04:05:53.935Z,19.77
2023-02-16T04:08:23.785Z,20.13
2023-02-16T04:10:54.206Z,18.60
2023-02-16T04:13:22.727Z,16.92
2023-02-16T04:15:52.344Z,20.85
2023-02-16T04:18:21.715Z,19.20
2023-02-16T04:20:53.963Z,20.67
2023-02-16T04:23:23.321Z,18.13
2023-02-16T04:25:52.980Z,19.13
2023-02-16T04:28:22.379Z,18.70
2023-02-16T04:30:52.410Z,20.00
2023-02-16T04:33:21.887Z,16.67
2023-02-16T04:35:52.901Z,18.08
2023-02-16T04:38:22.448Z,18.95
2023-02-16T04:40:51.993Z,18.80
2023-02-16T04:43:21.532Z,19.10
2023-02-16T04:45:51.200Z,18.35
2023-02-16T04:48:20.805Z,21.23
2023-02-16T04:50:51.875Z,19.98
2023-02-16T04:53:21.529Z,17.80
2023-02-16T04:55:51.367Z,19.38
2023-02-16T04:58:20.874Z,19.67
2023-02-16T05:00:50.458Z,20.05
2023-02-16T05:03:20.000Z,19.25
2023-02-16T05:05:50.279Z,19.05
2023-02-16T05:08:21.062Z,18.25
2023-02-16T05:11:10.812Z,18.90
2023-02-16T05:13:57.988Z,18.55
2023-02-16T05:16:27.690Z,20.48
2023-02-16T05:18:58.776Z,20.33
2023-02-16T05:21:35.254Z,22.05
2023-02-16T05:24:10.288Z,19.80
2023-02-16T05:26:40.935Z,20.63
2023-02-16T05:29:10.480Z,20.45
2023-02-16T05:31:40.010Z,17.92
2023-02-16T05:34:09.612Z,18.63
2023-02-16T05:36:39.099Z,20.58
2023-02-16T05:39:09.904Z,20.38
2023-02-16T05:41:39.388Z,19.55
2023-02-16T05:44:09.903Z,17.95
2023-02-16T05:46:41.930Z,16.48
2023-02-16T05:49:12.054Z,18.80
2023-02-16T05:51:42.160Z,18.13
2023-02-16T05:54:17.336Z,18.10
2023-02-16T05:56:48.712Z,16.83
2023-02-16T05:59:19.011Z,17.08
2023-02-16T06:01:51.855Z,18.20
2023-02-16T06:04:22.694Z,16.30
2023-02-16T06:06:52.110Z,15.90
2023-02-16T06:09:22.870Z,16.90
2023-02-16T06:11:52.348Z,18.23
2023-02-16T06:14:23.088Z,16.98
2023-02-16T06:16:52.731Z,18.52
2023-02-16T06:19:22.226Z,19.00
2023-02-16T06:21:51.652Z,18.50
2023-02-16T06:24:22.425Z,16.50
2023-02-16T06:26:51.808Z,14.90
2023-02-16T06:29:21.201Z,12.27
2023-02-16T06:31:50.778Z,11.93
2023-02-16T06:34:20.501Z,10.70
2023-02-16T06:36:49.930Z,10.80
2023-02-16T06:39:19.704Z,10.55
2023-02-16T06:41:50.487Z,9.60
2023-02-16T06:44:20.212Z,9.07
2023-02-16T06:46:49.999Z,9.85
2023-02-16T06:49:22.137Z,9.30
2023-02-16T06:51:51.895Z,9.10
2023-02-16T06:54:21.760Z,9.73
2023-02-16T06:56:52.624Z,8.95
2023-02-16T06:59:22.003Z,9.18
2023-02-16T07:01:51.497Z,8.95
2023-02-16T07:04:20.942Z,8.88
2023-02-16T07:06:50.493Z,8.45
2023-02-16T07:09:19.984Z,8.70
2023-02-16T07:11:50.032Z,7.93
2023-02-16T07:14:20.947Z,9.60
2023-02-16T07:16:50.332Z,11.75
2023-02-16T07:19:20.046Z,13.48
2023-02-16T07:21:49.404Z,15.05
2023-02-16T07:24:19.092Z,12.82
2023-02-16T07:26:49.118Z,12.38
2023-02-16T07:29:20.086Z,15.60
2023-02-16T07:31:50.775Z,13.63
2023-02-16T07:34:21.759Z,14.52
2023-02-16T07:36:51.577Z,15.40
2023-02-16T07:39:21.132Z,15.23
2023-02-16T07:41:50.543Z,17.23
2023-02-16T07:44:22.646Z,16.98
2023-02-16T07:46:52.055Z,13.23
2023-02-16T07:49:21.650Z,10.48
2023-02-16T07:51:51.160Z,10.35
2023-02-16T07:54:20.614Z,10.25
2023-02-16T07:56:50.046Z,8.88
2023-02-16T07:59:20.836Z,8.95
2023-02-16T08:01:50.603Z,10.15
2023-02-16T08:04:20.151Z,9.45
2023-02-16T08:06:50.810Z,10.85
2023-02-16T08:09:20.840Z,9.90
2023-02-16T08:11:50.289Z,9.02
2023-02-16T08:14:21.060Z,10.27
2023-02-16T08:16:53.603Z,11.32
2023-02-16T08:19:24.273Z,10.38
2023-02-16T08:21:54.483Z,8.52
2023-02-16T08:24:25.002Z,10.55
2023-02-16T08:26:55.686Z,9.32
2023-02-16T08:29:26.912Z,9.02
2023-02-16T08:31:56.744Z,9.82
2023-02-16T08:34:27.314Z,10.15
2023-02-16T08:36:58.673Z,9.15
2023-02-16T08:39:31.932Z,9.88
2023-02-16T08:42:02.627Z,8.90
2023-02-16T08:44:33.521Z,8.38
2023-02-16T08:47:03.742Z,8.85
2023-02-16T08:49:33.599Z,8.88
2023-02-16T08:52:04.184Z,9.48
2023-02-16T08:54:33.649Z,8.93
2023-02-16T08:57:03.984Z,8.40
2023-02-16T08:59:35.027Z,8.00
2023-02-16T09:02:05.355Z,8.57
2023-02-16T09:04:36.755Z,7.93
2023-02-16T09:07:07.363Z,7.25
2023-02-16T09:09:36.844Z,7.80
2023-02-16T09:12:07.203Z,7.25
2023-02-16T09:14:38.263Z,7.47
2023-02-16T09:17:07.864Z,7.00
2023-02-16T09:19:37.473Z,6.65
2023-02-16T09:22:07.113Z,7.38
2023-02-16T09:24:36.689Z,6.60
2023-02-16T09:27:06.957Z,6.40
2023-02-16T09:29:38.642Z,7.38
2023-02-16T09:32:09.828Z,6.75
2023-02-16T09:34:39.373Z,6.93
2023-02-16T09:37:08.857Z,6.88
2023-02-16T09:39:38.321Z,7.03
2023-02-16T09:42:28.332Z,6.72
2023-02-16T09:45:09.712Z,7.30
2023-02-16T09:47:45.017Z,7.10
2023-02-16T09:50:27.795Z,7.00
2023-02-16T09:53:20.129Z,8.18
2023-02-16T09:56:03.521Z,6.65
2023-02-16T10:01:28.969Z,6.85
2023-02-16T10:04:23.686Z,7.40
2023-02-16T10:07:10.821Z,7.57
2023-02-16T10:09:42.381Z,6.85
2023-02-16T10:12:19.344Z,8.50
2023-02-16T10:14:52.934Z,8.80
2023-02-16T10:17:43.172Z,9.60
2023-02-16T10:20:16.671Z,9.50
2023-02-16T10:22:54.043Z,9.85
2023-02-16T10:25:31.620Z,9.93
2023-02-16T10:28:17.473Z,10.80
2023-02-16T10:30:54.949Z,9.13
2023-02-16T10:33:41.019Z,10.57
2023-02-16T10:36:25.812Z,9.30
2023-02-16T10:39:04.558Z,8.65
2023-02-16T10:41:42.053Z,9.73
2023-02-16T10:44:21.344Z,10.05
2023-02-16T10:47:01.849Z,9.63
2023-02-16T10:49:34.029Z,10.15
2023-02-16T10:52:04.953Z,9.68
2023-02-16T10:54:35.115Z,9.13
2023-02-16T10:57:07.465Z,8.77
2023-02-16T10:59:42.533Z,10.23
2023-02-16T11:02:22.079Z,9.82
2023-02-16T11:04:54.865Z,9.35
2023-02-16T11:07:27.830Z,9.10
2023-02-16T11:10:01.342Z,8.98
2023-02-16T11:12:34.926Z,9.75
2023-02-16T11:15:22.887Z,8.68
2023-02-16T11:17:56.574Z,9.45
2023-02-16T11:20:32.614Z,8.80
2023-02-16T11:23:23.577Z,8.13
2023-02-16T11:26:01.090Z,8.65
2023-02-16T11:28:36.954Z,7.45
2023-02-16T11:31:19.723Z,7.75
2023-02-16T11:34:03.813Z,7.70
2023-02-16T11:36:41.687Z,7.43
2023-02-16T11:39:22.400Z,7.38
2023-02-16T11:41:55.610Z,7.80
2023-02-16T11:44:30.905Z,6.00
2023-02-16T11:47:03.849Z,6.65
2023-02-16T11:49:37.092Z,6.90
2023-02-16T11:52:29.249Z,6.88
2023-02-16T11:55:03.043Z,6.85
2023-02-16T11:57:36.730Z,6.97
2023-02-16T12:00:19.274Z,6.95
2023-02-16T12:03:17.982Z,6.47
2023-02-16T12:06:09.906Z,6.50
2023-02-16T12:09:06.996Z,6.38
2023-02-16T12:11:52.651Z,5.72
2023-02-16T12:14:38.299Z,6.50
2023-02-16T12:17:27.772Z,6.20
2023-02-16T12:20:16.157Z,6.53
2023-02-16T12:22:49.947Z,6.43
2023-02-16T12:25:33.335Z,5.72
2023-02-16T12:31:02.250Z,5.63
2023-02-16T12:33:47.984Z,6.25
2023-02-16T12:36:57.225Z,5.97
2023-02-16T12:39:39.348Z,5.65
2023-02-16T12:42:51.113Z,6.18
2023-02-16T12:45:24.993Z,5.75
2023-02-16T12:48:01.200Z,5.47
2023-02-16T12:50:33.676Z,5.45
2023-02-16T12:53:10.499Z,5.95
2023-02-16T12:55:48.908Z,6.10
2023-02-16T12:58:25.033Z,6.18
2023-02-16T13:01:01.058Z,6.95
2023-02-16T13:03:39.632Z,6.88
2023-02-16T13:06:22.746Z,5.30
2023-02-16T13:09:05.137Z,6.53
2023-02-16T13:11:40.527Z,6.00
2023-02-16T13:14:28.906Z,5.80
2023-02-16T13:17:04.229Z,6.47
2023-02-16T13:19:33.877Z,6.30
2023-02-16T13:22:38.053Z,6.55
2023-02-16T13:25:53.385Z,6.60
2023-02-16T13:28:52.310Z,6.53
2023-02-16T13:31:45.108Z,6.43
2023-02-16T13:34:48.832Z,6.22
2023-02-16T13:37:39.261Z,6.68
2023-02-16T13:40:47.373Z,6.00
2023-02-16T13:43:33.795Z,7.13
2023-02-16T13:46:09.050Z,6.82
2023-02-16T13:48:48.776Z,5.68
2023-02-16T13:51:22.451Z,6.97
2023-02-16T13:53:57.670Z,5.70
2023-02-16T13:56:38.185Z,7.07
2023-02-16T14:00:05.525Z,6.57
2023-02-16T14:03:00.828Z,5.68
2023-02-16T14:05:39.465Z,5.72
2023-02-16T14:08:25.594Z,6.97
2023-02-16T14:11:10.669Z,6.75
2023-02-16T14:13:51.704Z,6.25
